Time,TemperatureF,DewpointF,PressureIn,WindDirection,WindDirectionDegrees,WindSpeedMPH,WindSpeedGustMPH,Humidity,HourlyPrecipIn,Conditions,Clouds,dailyrainin,SoftwareType,DateUTC
2013-06-04 00:00:00,64.8,55.6,29.81,ESE,115,17.0,35.0,72,0.00,,,0.00,Wunderground v.1.15,2013-06-04 05:00:00,
2013-06-04 00:05:00,64.7,55.5,29.81,SE,132,16.0,35.0,72,0.00,,,0.00,Wunderground v.1.15,2013-06-04 05:05:00,
2013-06-04 00:15:00,64.8,55.6,29.81,SE,131,18.0,19.0,72,0.00,,,0.00,Wunderground v.1.15,2013-06-04 05:15:00,
2013-06-04 00:20:00,64.9,56.0,29.80,SE,129,18.0,18.0,73,0.00,,,0.00,Wunderground v.1.15,2013-06-04 05:20:00,
2013-06-04 00:25:00,64.8,55.9,29.80,SE,128,19.0,21.0,73,0.00,,,0.00,Wunderground v.1.15,2013-06-04 05:25:00,
2013-06-04 00:35:00,64.7,55.8,29.81,SE,131,19.0,35.0,73,0.00,,,0.00,Wunderground v.1.15,2013-06-04 05:35:00,
2013-06-04 00:40:00,64.6,56.1,29.81,SE,132,17.0,35.0,74,0.00,,,0.00,Wunderground v.1.15,2013-06-04 05:40:00,
2013-06-04 00:45:00,64.6,56.1,29.81,ESE,123,17.0,35.0,74,0.00,,,0.00,Wunderground v.1.15,2013-06-04 05:45:00,
2013-06-04 00:50:00,64.4,55.9,29.82,ESE,109,16.0,35.0,74,0.00,,,0.00,Wunderground v.1.15,2013-06-04 05:50:00,
2013-06-04 01:00:00,64.3,56.2,29.83,SE,134,15.0,15.0,75,0.00,,,0.00,Wunderground v.1.15,2013-06-04 06:00:00,
2013-06-04 01:05:00,64.2,56.1,29.83,ESE,123,13.0,35.0,75,0.00,,,0.00,Wunderground v.1.15,2013-06-04 06:05:00,
2013-06-04 01:10:00,64.1,56.0,29.83,SE,125,12.0,35.0,75,0.00,,,0.00,Wunderground v.1.15,2013-06-04 06:10:00,
2013-06-04 01:15:00,64.2,56.1,29.84,SE,128,13.0,35.0,75,0.00,,,0.00,Wunderground v.1.15,2013-06-04 06:15:00,
2013-06-04 01:25:00,64.0,56.3,29.83,ESE,123,11.0,35.0,76,0.00,,,0.00,Wunderground v.1.15,2013-06-04 06:25:00,
2013-06-04 01:30:00,63.9,56.5,29.83,ESE,121,11.0,35.0,77,0.00,,,0.00,Wunderground v.1.15,2013-06-04 06:30:00,
2013-06-04 01:35:00,63.8,56.4,29.83,ESE,123,11.0,35.0,77,0.00,,,0.00,Wunderground v.1.15,2013-06-04 06:35:00,
2013-06-04 01:40:00,63.7,56.4,29.82,SE,126,12.0,35.0,77,0.00,,,0.00,Wunderground v.1.15,2013-06-04 06:40:00,
2013-06-04 01:45:00,63.7,56.4,29.83,ESE,123,12.0,35.0,77,0.00,,,0.00,Wunderground v.1.15,2013-06-04 06:45:00,
2013-06-04 01:55:00,63.7,56.4,29.87,ESE,118,3.0,35.0,77,0.00,,,0.00,Wunderground v.1.15,2013-06-04 06:55:00,
2013-06-04 02:00:00,63.7,56.4,29.86,ESE,118,2.0,35.0,77,0.00,,,0.00,Wunderground v.1.15,2013-06-04 07:00:00,
2013-06-04 02:05:00,63.7,56.7,29.88,NE,48,2.0,35.0,78,0.00,,,0.00,Wunderground v.1.15,2013-06-04 07:05:00,
2013-06-04 02:15:00,63.4,56.4,29.87,NNE,24,2.0,35.0,78,0.00,,,0.00,Wunderground v.1.15,2013-06-04 07:15:00,
2013-06-04 02:20:00,63.4,56.8,29.87,NNE,24,2.0,35.0,79,0.00,,,0.00,Wunderground v.1.15,2013-06-04 07:20:00,
2013-06-04 02:25:00,63.2,56.6,29.87,NNE,24,1.0,35.0,79,0.00,,,0.00,Wunderground v.1.15,2013-06-04 07:25:00,
2013-06-04 02:30:00,63.0,56.4,29.88,NNE,24,2.0,35.0,79,0.00,,,0.00,Wunderground v.1.15,2013-06-04 07:30:00,
2013-06-04 02:40:00,62.6,56.3,29.87,NNE,24,3.0,35.0,80,0.00,,,0.00,Wunderground v.1.15,2013-06-04 07:40:00,
2013-06-04 02:45:00,62.3,56.4,29.86,NNE,24,3.0,35.0,81,0.00,,,0.00,Wunderground v.1.15,2013-06-04 07:45:00,
2013-06-04 02:50:00,62.1,56.2,29.88,NNE,24,3.0,3.0,81,0.00,,,0.00,Wunderground v.1.15,2013-06-04 07:50:00,
2013-06-04 03:00:00,61.9,56.3,29.86,NE,55,3.0,35.0,82,0.00,,,0.00,Wunderground v.1.15,2013-06-04 08:00:00,
2013-06-04 03:05:00,61.8,56.2,29.85,ENE,65,4.0,35.0,82,0.00,,,0.00,Wunderground v.1.15,2013-06-04 08:05:00,
2013-06-04 03:10:00,61.8,56.2,29.85,ENE,65,5.0,5.0,82,0.00,,,0.00,Wunderground v.1.15,2013-06-04 08:10:00,
2013-06-04 03:15:00,61.9,56.3,29.85,East,80,5.0,8.0,82,0.00,,,0.00,Wunderground v.1.15,2013-06-04 08:15:00,
2013-06-04 03:20:00,62.0,56.4,29.84,East,84,6.0,6.0,82,0.00,,,0.00,Wunderground v.1.15,2013-06-04 08:20:00,
2013-06-04 03:30:00,61.8,56.2,29.84,ESE,110,9.0,35.0,82,0.00,,,0.00,Wunderground v.1.15,2013-06-04 08:30:00,
2013-06-04 03:35:00,61.7,56.1,29.84,ESE,115,11.0,35.0,82,0.00,,,0.00,Wunderground v.1.15,2013-06-04 08:35:00,
2013-06-04 03:40:00,61.6,56.4,29.84,ESE,119,12.0,35.0,83,0.00,,,0.00,Wunderground v.1.15,2013-06-04 08:40:00,
2013-06-04 03:45:00,61.5,56.3,29.83,ESE,121,12.0,35.0,83,0.00,,,0.00,Wunderground v.1.15,2013-06-04 08:45:00,
2013-06-04 03:55:00,61.4,56.5,29.83,SE,130,14.0,35.0,84,0.00,,,0.00,Wunderground v.1.15,2013-06-04 08:55:00,
2013-06-04 04:00:00,61.2,56.3,29.82,ESE,119,15.0,15.0,84,0.00,,,0.00,Wunderground v.1.15,2013-06-04 09:00:00,
2013-06-04 04:05:00,61.1,56.6,29.81,ESE,122,15.0,19.0,85,0.00,,,0.00,Wunderground v.1.15,2013-06-04 09:05:00,
2013-06-04 04:10:00,61.1,56.6,29.81,SE,126,16.0,16.0,85,0.00,,,0.00,Wunderground v.1.15,2013-06-04 09:10:00,
2013-06-04 04:20:00,60.9,56.4,29.81,SE,126,15.0,35.0,85,0.00,,,0.00,Wunderground v.1.15,2013-06-04 09:20:00,
2013-06-04 04:25:00,60.9,56.7,29.82,SE,134,16.0,35.0,86,0.00,,,0.00,Wunderground v.1.15,2013-06-04 09:25:00,
2013-06-04 04:30:00,60.7,56.8,29.82,SE,126,14.0,14.0,87,0.00,,,0.00,Wunderground v.1.15,2013-06-04 09:30:00,
2013-06-04 04:40:00,60.8,56.9,29.84,SE,124,10.0,10.0,87,0.00,,,0.00,Wunderground v.1.15,2013-06-04 09:40:00,
2013-06-04 04:45:00,60.8,56.9,29.86,SE,125,6.0,35.0,87,0.00,,,0.00,Wunderground v.1.15,2013-06-04 09:45:00,
2013-06-04 04:50:00,60.9,57.0,29.87,SSW,196,3.0,35.0,87,0.00,,,0.01,Wunderground v.1.15,2013-06-04 09:50:00,
2013-06-04 04:55:00,60.6,57.0,29.87,WNW,291,5.0,35.0,88,0.00,,,0.01,Wunderground v.1.15,2013-06-04 09:55:00,
2013-06-04 05:05:00,60.3,57.0,29.86,WNW,291,2.0,35.0,89,0.00,,,0.01,Wunderground v.1.15,2013-06-04 10:05:00,
2013-06-04 05:10:00,60.2,57.3,29.86,WNW,291,1.0,35.0,90,0.00,,,0.01,Wunderground v.1.15,2013-06-04 10:10:00,
2013-06-04 05:15:00,60.2,57.6,29.86,WNW,291,2.0,35.0,91,0.00,,,0.01,Wunderground v.1.15,2013-06-04 10:15:00,
2013-06-04 05:25:00,59.8,57.2,29.85,WNW,288,5.0,35.0,91,0.00,,,0.01,Wunderground v.1.15,2013-06-04 10:25:00,
2013-06-04 05:30:00,59.9,57.3,29.86,WNW,288,5.0,35.0,91,0.00,,,0.01,Wunderground v.1.15,2013-06-04 10:30:00,
2013-06-04 05:35:00,59.8,57.2,29.85,WNW,284,5.0,35.0,91,0.00,,,0.02,Wunderground v.1.15,2013-06-04 10:35:00,
2013-06-04 05:40:00,59.7,57.4,29.85,South,186,6.0,35.0,92,0.07,,,0.02,Wunderground v.1.15,2013-06-04 10:40:00,
2013-06-04 05:50:00,59.8,57.5,29.85,SE,136,6.0,35.0,92,0.06,,,0.03,Wunderground v.1.15,2013-06-04 10:50:00,
2013-06-04 05:55:00,59.9,57.3,29.85,SE,134,8.0,35.0,91,0.04,,,0.03,Wunderground v.1.15,2013-06-04 10:55:00,
2013-06-04 06:00:00,59.9,57.3,29.85,SE,133,10.0,35.0,91,0.00,,,0.03,Wunderground v.1.15,2013-06-04 11:00:00,
2013-06-04 06:10:00,59.9,57.0,29.84,SE,124,13.0,13.0,90,0.00,,,0.03,Wunderground v.1.15,2013-06-04 11:10:00,
2013-06-04 06:15:00,59.9,57.0,29.83,ESE,116,14.0,14.0,90,0.00,,,0.03,Wunderground v.1.15,2013-06-04 11:15:00,
2013-06-04 06:20:00,60.0,57.1,29.81,SE,126,17.0,35.0,90,0.00,,,0.03,Wunderground v.1.15,2013-06-04 11:20:00,
2013-06-04 06:30:00,60.2,56.9,29.79,SSE,149,19.0,19.0,89,0.00,,,0.03,Wunderground v.1.15,2013-06-04 11:30:00,
2013-06-04 06:35:00,60.2,56.9,29.79,SE,142,19.0,35.0,89,0.00,,,0.03,Wunderground v.1.15,2013-06-04 11:35:00,
2013-06-04 06:40:00,60.2,56.9,29.80,SSE,158,17.0,17.0,89,0.00,,,0.03,Wunderground v.1.15,2013-06-04 11:40:00,
2013-06-04 06:45:00,60.1,56.8,29.80,SE,146,15.0,35.0,89,0.00,,,0.03,Wunderground v.1.15,2013-06-04 11:45:00,
2013-06-04 06:50:00,60.2,56.9,29.80,SE,143,15.0,15.0,89,0.00,,,0.03,Wunderground v.1.15,2013-06-04 11:50:00,
2013-06-04 07:00:00,60.3,57.0,29.80,SE,131,14.0,14.0,89,0.00,,,0.03,Wunderground v.1.15,2013-06-04 12:00:00,
2013-06-04 07:05:00,60.3,57.0,29.81,SSE,151,14.0,15.0,89,0.00,,,0.03,Wunderground v.1.15,2013-06-04 12:05:00,
2013-06-04 07:10:00,60.2,56.9,29.82,SSE,159,14.0,14.0,89,0.00,,,0.03,Wunderground v.1.15,2013-06-04 12:10:00,
2013-06-04 07:15:00,60.1,56.8,29.81,SE,144,15.0,16.0,89,0.00,,,0.03,Wunderground v.1.15,2013-06-04 12:15:00,
2013-06-04 07:25:00,60.1,57.2,29.81,SE,142,14.0,35.0,90,0.00,,,0.03,Wunderground v.1.15,2013-06-04 12:25:00,
2013-06-04 07:30:00,60.2,56.9,29.82,SSE,154,13.0,13.0,89,0.00,,,0.03,Wunderground v.1.15,2013-06-04 12:30:00,
2013-06-04 07:35:00,60.3,57.0,29.82,SSE,147,11.0,35.0,89,0.00,,,0.03,Wunderground v.1.15,2013-06-04 12:35:00,
2013-06-04 07:45:00,60.4,57.1,29.82,ESE,123,10.0,35.0,89,0.00,,,0.03,Wunderground v.1.15,2013-06-04 12:45:00,
2013-06-04 07:50:00,60.4,57.1,29.82,SE,128,9.0,35.0,89,0.00,,,0.03,Wunderground v.1.15,2013-06-04 12:50:00,
2013-06-04 07:55:00,60.4,57.5,29.82,SE,127,10.0,35.0,90,0.00,,,0.03,Wunderground v.1.15,2013-06-04 12:55:00,
2013-06-04 08:05:00,60.5,57.6,29.84,ESE,119,9.0,35.0,90,0.00,,,0.03,Wunderground v.1.15,2013-06-04 13:05:00,
2013-06-04 08:10:00,60.5,57.6,29.85,ESE,123,6.0,35.0,90,0.00,,,0.03,Wunderground v.1.15,2013-06-04 13:10:00,
2013-06-04 08:15:00,60.6,57.7,29.84,SE,124,6.0,35.0,90,0.00,,,0.03,Wunderground v.1.15,2013-06-04 13:15:00,
2013-06-04 08:20:00,60.7,57.7,29.89,WNW,290,5.0,35.0,90,0.00,,,0.03,Wunderground v.1.15,2013-06-04 13:20:00,
2013-06-04 08:30:00,61.3,58.3,29.89,WNW,294,6.0,35.0,90,0.00,,,0.03,Wunderground v.1.15,2013-06-04 13:30:00,
2013-06-04 08:35:00,61.6,58.3,29.87,WNW,300,5.0,35.0,89,0.00,,,0.03,Wunderground v.1.15,2013-06-04 13:35:00,
2013-06-04 08:40:00,62.1,58.8,29.89,WNW,299,5.0,35.0,89,0.00,,,0.03,Wunderground v.1.15,2013-06-04 13:40:00,
2013-06-04 08:45:00,62.2,58.9,29.88,WNW,303,5.0,35.0,89,0.00,,,0.03,Wunderground v.1.15,2013-06-04 13:45:00,
2013-06-04 08:55:00,62.4,58.8,29.89,WNW,295,6.0,35.0,88,0.00,,,0.03,Wunderground v.1.15,2013-06-04 13:55:00,
2013-06-04 09:00:00,62.5,58.9,29.90,WNW,296,5.0,35.0,88,0.00,,,0.03,Wunderground v.1.15,2013-06-04 14:00:00,
2013-06-04 09:05:00,62.5,58.6,29.89,WNW,296,5.0,35.0,87,0.00,,,0.03,Wunderground v.1.15,2013-06-04 14:05:00,
2013-06-04 09:15:00,62.6,58.7,29.89,WNW,298,5.0,35.0,87,0.00,,,0.03,Wunderground v.1.15,2013-06-04 14:15:00,
2013-06-04 09:20:00,62.7,58.8,29.89,WNW,298,5.0,5.0,87,0.00,,,0.03,Wunderground v.1.15,2013-06-04 14:20:00,
2013-06-04 09:25:00,62.9,59.0,29.90,WNW,298,4.0,35.0,87,0.00,,,0.03,Wunderground v.1.15,2013-06-04 14:25:00,
2013-06-04 09:35:00,63.3,59.4,29.90,WNW,297,4.0,35.0,87,0.00,,,0.03,Wunderground v.1.15,2013-06-04 14:35:00,
2013-06-04 09:40:00,63.5,59.6,29.90,WNW,297,4.0,4.0,87,0.00,,,0.03,Wunderground v.1.15,2013-06-04 14:40:00,
2013-06-04 09:45:00,63.9,60.0,29.90,WNW,297,3.0,35.0,87,0.00,,,0.03,Wunderground v.1.15,2013-06-04 14:45:00,
2013-06-04 09:50:00,64.1,59.8,29.90,WNW,299,3.0,35.0,86,0.00,,,0.03,Wunderground v.1.15,2013-06-04 14:50:00,
2013-06-04 09:55:00,64.0,59.7,29.90,WNW,302,4.0,35.0,86,0.00,,,0.03,Wunderground v.1.15,2013-06-04 14:55:00,
2013-06-04 10:05:00,64.4,60.1,29.90,NW,306,5.0,6.0,86,0.00,,,0.03,Wunderground v.1.15,2013-06-04 15:05:00,
2013-06-04 10:10:00,64.6,60.3,29.90,NW,307,5.0,5.0,86,0.00,,,0.03,Wunderground v.1.15,2013-06-04 15:10:00,
2013-06-04 10:15:00,64.7,60.1,29.90,NW,312,5.0,35.0,85,0.00,,,0.03,Wunderground v.1.15,2013-06-04 15:15:00,
2013-06-04 10:20:00,64.9,59.9,29.89,NW,313,5.0,35.0,84,0.00,,,0.03,Wunderground v.1.15,2013-06-04 15:20:00,
2013-06-04 10:30:00,65.9,60.2,29.90,NW,313,4.0,4.0,82,0.00,,,0.03,Wunderground v.1.15,2013-06-04 15:30:00,
2013-06-04 10:35:00,66.4,61.1,29.90,NW,313,3.0,35.0,83,0.00,,,0.03,Wunderground v.1.15,2013-06-04 15:35:00,
2013-06-04 10:40:00,66.7,61.0,29.90,NW,325,3.0,35.0,82,0.00,,,0.03,Wunderground v.1.15,2013-06-04 15:40:00,
2013-06-04 10:50:00,66.5,61.2,29.90,NW,325,3.0,35.0,83,0.00,,,0.03,Wunderground v.1.15,2013-06-04 15:50:00,
2013-06-04 10:55:00,66.6,60.9,29.90,NNW,331,3.0,35.0,82,0.00,,,0.03,Wunderground v.1.15,2013-06-04 15:55:00,
2013-06-04 11:00:00,66.8,60.8,29.90,NNW,340,4.0,4.0,81,0.00,,,0.03,Wunderground v.1.15,2013-06-04 16:00:00,
2013-06-04 11:05:00,67.2,61.2,29.90,NNW,340,4.0,5.0,81,0.00,,,0.03,Wunderground v.1.15,2013-06-04 16:05:00,
2013-06-04 11:15:00,67.7,61.7,29.90,NNW,340,4.0,35.0,81,0.00,,,0.03,Wunderground v.1.15,2013-06-04 16:15:00,
2013-06-04 11:20:00,68.2,61.1,29.90,NNW,340,3.0,35.0,78,0.00,,,0.03,Wunderground v.1.15,2013-06-04 16:20:00,
2013-06-04 11:25:00,68.5,61.7,29.90,NNW,340,3.0,35.0,79,0.00,,,0.03,Wunderground v.1.15,2013-06-04 16:25:00,
2013-06-04 11:30:00,69.1,62.3,29.90,NNW,340,3.0,35.0,79,0.00,,,0.03,Wunderground v.1.15,2013-06-04 16:30:00,
2013-06-04 11:40:00,69.7,62.2,29.90,NW,325,4.0,35.0,77,0.00,,,0.03,Wunderground v.1.15,2013-06-04 16:40:00,
2013-06-04 11:45:00,69.9,62.4,29.91,NW,321,5.0,35.0,77,0.00,,,0.03,Wunderground v.1.15,2013-06-04 16:45:00,
2013-06-04 11:50:00,70.2,62.3,29.91,NW,320,5.0,5.0,76,0.00,,,0.03,Wunderground v.1.15,2013-06-04 16:50:00,
2013-06-04 12:00:00,71.4,62.3,29.91,NNW,342,5.0,5.0,73,0.00,,,0.03,Wunderground v.1.15,2013-06-04 17:00:00,
2013-06-04 12:05:00,71.4,62.3,29.91,NNW,344,4.0,35.0,73,0.00,,,0.03,Wunderground v.1.15,2013-06-04 17:05:00,
2013-06-04 12:10:00,71.4,61.9,29.91,NNW,333,4.0,35.0,72,0.00,,,0.03,Wunderground v.1.15,2013-06-04 17:10:00,
2013-06-04 12:15:00,71.3,61.8,29.91,NW,320,6.0,35.0,72,0.00,,,0.03,Wunderground v.1.15,2013-06-04 17:15:00,
2013-06-04 12:25:00,70.8,61.3,29.91,North,355,5.0,35.0,72,0.00,,,0.03,Wunderground v.1.15,2013-06-04 17:25:00,
2013-06-04 12:30:00,70.8,61.3,29.91,North,360,6.0,35.0,72,0.00,,,0.03,Wunderground v.1.15,2013-06-04 17:30:00,
2013-06-04 12:35:00,70.7,61.2,29.91,North,360,5.0,35.0,72,0.00,,,0.03,Wunderground v.1.15,2013-06-04 17:35:00,
2013-06-04 12:40:00,71.0,61.1,29.91,North,360,4.0,35.0,71,0.00,,,0.03,Wunderground v.1.15,2013-06-04 17:40:00,
2013-06-04 12:50:00,71.3,61.8,29.90,NNW,346,4.0,35.0,72,0.00,,,0.03,Wunderground v.1.15,2013-06-04 17:50:00,
2013-06-04 12:55:00,71.4,61.9,29.90,North,5,5.0,35.0,72,0.00,,,0.03,Wunderground v.1.15,2013-06-04 17:55:00,
2013-06-04 13:00:00,71.2,61.7,29.91,North,5,5.0,35.0,72,0.00,,,0.03,Wunderground v.1.15,2013-06-04 18:00:00,
2013-06-04 13:10:00,71.4,61.5,29.90,NNE,13,5.0,35.0,71,0.00,,,0.03,Wunderground v.1.15,2013-06-04 18:10:00,
2013-06-04 13:15:00,71.5,61.6,29.90,NNE,19,6.0,35.0,71,0.00,,,0.03,Wunderground v.1.15,2013-06-04 18:15:00,
2013-06-04 13:20:00,71.6,61.7,29.90,NW,323,5.0,5.0,71,0.00,,,0.03,Wunderground v.1.15,2013-06-04 18:20:00,
2013-06-04 13:25:00,71.6,61.7,29.90,NNE,14,5.0,8.0,71,0.00,,,0.03,Wunderground v.1.15,2013-06-04 18:25:00,
2013-06-04 13:35:00,71.4,61.5,29.89,NNE,17,7.0,35.0,71,0.00,,,0.03,Wunderground v.1.15,2013-06-04 18:35:00,
2013-06-04 13:40:00,71.4,61.5,29.89,NNE,22,7.0,7.0,71,0.00,,,0.03,Wunderground v.1.15,2013-06-04 18:40:00,
2013-06-04 13:45:00,71.3,61.8,29.89,NNE,26,7.0,35.0,72,0.00,,,0.03,Wunderground v.1.15,2013-06-04 18:45:00,
2013-06-04 13:55:00,71.2,61.7,29.90,NNE,25,6.0,35.0,72,0.00,,,0.03,Wunderground v.1.15,2013-06-04 18:55:00,
2013-06-04 14:00:00,71.2,61.3,29.90,NNE,19,6.0,6.0,71,0.00,,,0.03,Wunderground v.1.15,2013-06-04 19:00:00,
2013-06-04 14:05:00,71.3,61.4,29.90,NNE,23,6.0,35.0,71,0.00,,,0.03,Wunderground v.1.15,2013-06-04 19:05:00,
2013-06-04 14:10:00,71.5,62.0,29.89,NNE,21,6.0,35.0,72,0.00,,,0.03,Wunderground v.1.15,2013-06-04 19:10:00,
2013-06-04 14:20:00,72.2,62.3,29.89,NNE,23,5.0,5.0,71,0.00,,,0.03,Wunderground v.1.15,2013-06-04 19:20:00,
2013-06-04 14:25:00,72.7,61.9,29.89,NNE,21,4.0,35.0,69,0.00,,,0.03,Wunderground v.1.15,2013-06-04 19:25:00,
2013-06-04 14:30:00,72.9,61.7,29.90,NNE,13,5.0,5.0,68,0.00,,,0.03,Wunderground v.1.15,2013-06-04 19:30:00,
2013-06-04 14:35:00,72.6,61.8,29.90,NNE,14,5.0,35.0,69,0.00,,,0.03,Wunderground v.1.15,2013-06-04 19:35:00,
2013-06-04 14:45:00,72.5,61.7,29.90,NNE,14,4.0,35.0,69,0.00,,,0.03,Wunderground v.1.15,2013-06-04 19:45:00,
2013-06-04 14:50:00,72.6,61.4,29.90,NNE,14,4.0,35.0,68,0.00,,,0.03,Wunderground v.1.15,2013-06-04 19:50:00,
2013-06-04 14:55:00,72.5,61.7,29.90,NNE,14,5.0,35.0,69,0.00,,,0.03,Wunderground v.1.15,2013-06-04 19:55:00,
2013-06-04 15:05:00,72.5,61.3,29.90,NNE,14,5.0,35.0,68,0.00,,,0.03,Wunderground v.1.15,2013-06-04 20:05:00,
2013-06-04 15:10:00,72.5,61.3,29.90,NNE,25,5.0,35.0,68,0.00,,,0.03,Wunderground v.1.15,2013-06-04 20:10:00,
2013-06-04 15:15:00,72.6,61.4,29.90,NNE,25,5.0,35.0,68,0.00,,,0.03,Wunderground v.1.15,2013-06-04 20:15:00,
2013-06-04 15:20:00,72.8,61.6,29.90,NNE,25,4.0,4.0,68,0.00,,,0.03,Wunderground v.1.15,2013-06-04 20:20:00,
2013-06-04 15:30:00,72.8,61.6,29.90,NNE,25,5.0,5.0,68,0.00,,,0.03,Wunderground v.1.15,2013-06-04 20:30:00,
2013-06-04 15:35:00,72.9,61.3,29.90,NNE,25,4.0,35.0,67,0.00,,,0.03,Wunderground v.1.15,2013-06-04 20:35:00,
2013-06-04 15:40:00,73.3,62.1,29.90,NNE,25,3.0,35.0,68,0.00,,,0.03,Wunderground v.1.15,2013-06-04 20:40:00,
2013-06-04 15:45:00,73.1,61.5,29.90,NNE,25,5.0,35.0,67,0.00,,,0.03,Wunderground v.1.15,2013-06-04 20:45:00,
2013-06-04 15:55:00,73.0,61.4,29.90,NNE,25,4.0,35.0,67,0.00,,,0.03,Wunderground v.1.15,2013-06-04 20:55:00,
2013-06-04 16:00:00,72.9,61.3,29.90,NNE,25,4.0,4.0,67,0.00,,,0.03,Wunderground v.1.15,2013-06-04 21:00:00,
2013-06-04 16:05:00,72.9,61.7,29.90,NNE,25,4.0,8.0,68,0.00,,,0.03,Wunderground v.1.15,2013-06-04 21:05:00,
2013-06-04 16:15:00,73.2,61.6,29.90,NNE,26,6.0,35.0,67,0.00,,,0.03,Wunderground v.1.15,2013-06-04 21:15:00,
2013-06-04 16:20:00,73.7,62.1,29.90,NNE,30,5.0,35.0,67,0.00,,,0.03,Wunderground v.1.15,2013-06-04 21:20:00,
2013-06-04 16:25:00,73.9,61.8,29.90,NE,37,6.0,35.0,66,0.00,,,0.03,Wunderground v.1.15,2013-06-04 21:25:00,
2013-06-04 16:35:00,74.1,61.6,29.90,NE,37,7.0,7.0,65,0.00,,,0.03,Wunderground v.1.15,2013-06-04 21:35:00,
2013-06-04 16:40:00,74.2,61.2,29.90,NE,49,6.0,35.0,64,0.00,,,0.03,Wunderground v.1.15,2013-06-04 21:40:00,
2013-06-04 16:45:00,74.8,62.2,29.90,NE,44,6.0,35.0,65,0.00,,,0.03,Wunderground v.1.15,2013-06-04 21:45:00,
2013-06-04 16:55:00,74.6,61.2,29.90,NE,49,7.0,35.0,63,0.00,,,0.03,Wunderground v.1.15,2013-06-04 21:55:00,
2013-06-04 17:00:00,74.9,61.9,29.90,NE,47,6.0,6.0,64,0.00,,,0.03,Wunderground v.1.15,2013-06-04 22:00:00,
2013-06-04 17:05:00,75.4,61.5,29.90,NE,47,5.0,35.0,62,0.00,,,0.03,Wunderground v.1.15,2013-06-04 22:05:00,
2013-06-04 17:10:00,75.4,61.5,29.90,NNE,23,6.0,35.0,62,0.00,,,0.03,Wunderground v.1.15,2013-06-04 22:10:00,
2013-06-04 17:20:00,74.6,61.6,29.90,NNE,30,6.0,35.0,64,0.00,,,0.03,Wunderground v.1.15,2013-06-04 22:20:00,
2013-06-04 17:25:00,74.7,60.8,29.90,NNE,28,6.0,35.0,62,0.00,,,0.03,Wunderground v.1.15,2013-06-04 22:25:00,
2013-06-04 17:30:00,74.7,60.8,29.90,NNE,31,6.0,35.0,62,0.00,,,0.03,Wunderground v.1.15,2013-06-04 22:30:00,
2013-06-04 17:35:00,74.6,62.1,29.90,NNE,28,7.0,35.0,65,0.00,,,0.03,Wunderground v.1.15,2013-06-04 22:35:00,
2013-06-04 17:45:00,74.4,61.4,29.90,NNE,30,8.0,35.0,64,0.00,,,0.03,Wunderground v.1.15,2013-06-04 22:45:00,
2013-06-04 17:50:00,74.6,62.1,29.90,NE,41,8.0,8.0,65,0.00,,,0.03,Wunderground v.1.15,2013-06-04 22:50:00,
2013-06-04 17:55:00,74.4,61.9,29.90,NNE,20,7.0,35.0,65,0.00,,,0.03,Wunderground v.1.15,2013-06-04 22:55:00,
2013-06-04 18:00:00,74.3,61.8,29.90,NNE,17,7.0,7.0,65,0.00,,,0.03,Wunderground v.1.15,2013-06-04 23:00:00,
2013-06-04 18:10:00,74.0,61.5,29.90,NNE,23,7.0,35.0,65,0.00,,,0.03,Wunderground v.1.15,2013-06-04 23:10:00,
2013-06-04 18:15:00,73.8,61.3,29.90,NNE,32,7.0,35.0,65,0.00,,,0.03,Wunderground v.1.15,2013-06-04 23:15:00,
2013-06-04 18:20:00,73.6,61.1,29.90,NNE,16,8.0,35.0,65,0.00,,,0.03,Wunderground v.1.15,2013-06-04 23:20:00,
2013-06-04 18:25:00,73.5,61.0,29.90,NNE,17,8.0,35.0,65,0.00,,,0.03,Wunderground v.1.15,2013-06-04 23:25:00,
2013-06-04 18:35:00,73.3,60.8,29.90,NNE,21,9.0,35.0,65,0.00,,,0.03,Wunderground v.1.15,2013-06-04 23:35:00,
2013-06-04 18:40:00,73.3,61.3,29.91,NNE,22,8.0,35.0,66,0.00,,,0.03,Wunderground v.1.15,2013-06-04 23:40:00,
2013-06-04 18:45:00,73.2,61.2,29.91,NNE,23,8.0,35.0,66,0.00,,,0.03,Wunderground v.1.15,2013-06-04 23:45:00,
2013-06-04 18:55:00,72.9,61.3,29.91,NNE,24,7.0,35.0,67,0.00,,,0.03,Wunderground v.1.15,2013-06-04 23:55:00,
2013-06-04 19:00:00,72.7,61.1,29.91,NE,36,8.0,35.0,67,0.00,,,0.03,Wunderground v.1.15,2013-06-05 00:00:00,
2013-06-04 19:05:00,72.5,60.9,29.91,NE,40,8.0,35.0,67,0.00,,,0.03,Wunderground v.1.15,2013-06-05 00:05:00,
2013-06-04 19:15:00,72.4,60.8,29.91,NE,40,7.0,35.0,67,0.00,,,0.03,Wunderground v.1.15,2013-06-05 00:15:00,
2013-06-04 19:20:00,72.2,61.0,29.92,NE,38,7.0,7.0,68,0.00,,,0.03,Wunderground v.1.15,2013-06-05 00:20:00,
2013-06-04 19:25:00,72.1,61.0,29.92,NE,34,7.0,8.0,68,0.00,,,0.03,Wunderground v.1.15,2013-06-05 00:25:00,
2013-06-04 19:30:00,72.0,61.3,29.92,NE,34,7.0,35.0,69,0.00,,,0.03,Wunderground v.1.15,2013-06-05 00:30:00,
2013-06-04 19:40:00,71.8,60.7,29.92,NNE,24,7.0,7.0,68,0.00,,,0.03,Wunderground v.1.15,2013-06-05 00:40:00,
2013-06-04 19:45:00,71.6,60.9,29.92,NE,36,6.0,35.0,69,0.00,,,0.03,Wunderground v.1.15,2013-06-05 00:45:00,
2013-06-04 19:50:00,71.5,61.2,29.93,NE,34,5.0,35.0,70,0.00,,,0.03,Wunderground v.1.15,2013-06-05 00:50:00,
2013-06-04 20:00:00,71.3,61.4,29.93,NE,47,7.0,35.0,71,0.00,,,0.03,Wunderground v.1.15,2013-06-05 01:00:00,
2013-06-04 20:05:00,71.3,61.8,29.93,NE,46,9.0,35.0,72,0.00,,,0.03,Wunderground v.1.15,2013-06-05 01:05:00,
2013-06-04 20:10:00,71.2,61.3,29.93,NE,56,10.0,10.0,71,0.00,,,0.03,Wunderground v.1.15,2013-06-05 01:10:00,
2013-06-04 20:15:00,71.1,61.2,29.94,NE,49,9.0,35.0,71,0.00,,,0.03,Wunderground v.1.15,2013-06-05 01:15:00,
2013-06-04 20:25:00,70.9,61.8,29.94,ENE,59,6.0,10.0,73,0.00,,,0.03,Wunderground v.1.15,2013-06-05 01:25:00,
2013-06-04 20:30:00,70.8,62.1,29.94,ENE,59,7.0,35.0,74,0.00,,,0.03,Wunderground v.1.15,2013-06-05 01:30:00,
2013-06-04 20:35:00,70.5,61.8,29.94,ENE,58,9.0,35.0,74,0.00,,,0.03,Wunderground v.1.15,2013-06-05 01:35:00,
2013-06-04 20:40:00,70.3,62.0,29.94,ENE,63,9.0,35.0,75,0.00,,,0.03,Wunderground v.1.15,2013-06-05 01:40:00,
2013-06-04 20:50:00,70.0,61.7,29.94,ENE,58,10.0,10.0,75,0.00,,,0.03,Wunderground v.1.15,2013-06-05 01:50:00,
2013-06-04 20:55:00,69.9,62.0,29.94,NE,55,9.0,35.0,76,0.00,,,0.03,Wunderground v.1.15,2013-06-05 01:55:00,
2013-06-04 21:00:00,69.7,61.8,29.94,NE,56,9.0,35.0,76,0.00,,,0.03,Wunderground v.1.15,2013-06-05 02:00:00,
2013-06-04 21:10:00,69.5,61.6,29.94,NE,49,9.0,9.0,76,0.00,,,0.03,Wunderground v.1.15,2013-06-05 02:10:00,
2013-06-04 21:15:00,69.3,61.8,29.94,NE,56,8.0,35.0,77,0.00,,,0.03,Wunderground v.1.15,2013-06-05 02:15:00,
2013-06-04 21:20:00,69.2,61.7,29.95,NE,44,8.0,8.0,77,0.00,,,0.03,Wunderground v.1.15,2013-06-05 02:20:00,
2013-06-04 21:25:00,69.0,61.5,29.96,NE,48,7.0,35.0,77,0.00,,,0.03,Wunderground v.1.15,2013-06-05 02:25:00,
2013-06-04 21:35:00,68.8,61.7,29.97,NE,48,5.0,35.0,78,0.00,,,0.03,Wunderground v.1.15,2013-06-05 02:35:00,
2013-06-04 21:40:00,68.7,61.9,29.97,NE,47,4.0,4.0,79,0.00,,,0.03,Wunderground v.1.15,2013-06-05 02:40:00,
2013-06-04 21:45:00,68.6,61.8,29.98,NE,47,3.0,35.0,79,0.00,,,0.03,Wunderground v.1.15,2013-06-05 02:45:00,
2013-06-04 21:50:00,68.5,61.7,29.99,NE,47,2.0,2.0,79,0.00,,,0.03,Wunderground v.1.15,2013-06-05 02:50:00,
2013-06-04 22:00:00,68.3,61.9,29.99,NE,47,2.0,35.0,80,0.00,,,0.03,Wunderground v.1.15,2013-06-05 03:00:00,
2013-06-04 22:05:00,68.3,61.9,29.99,NE,47,2.0,35.0,80,0.00,,,0.03,Wunderground v.1.15,2013-06-05 03:05:00,
2013-06-04 22:10:00,68.2,61.8,29.99,NE,47,2.0,35.0,80,0.00,,,0.03,Wunderground v.1.15,2013-06-05 03:10:00,
2013-06-04 22:15:00,68.1,61.7,29.98,NE,47,2.0,35.0,80,0.00,,,0.03,Wunderground v.1.15,2013-06-05 03:15:00,
2013-06-04 22:25:00,67.9,60.4,29.98,NNE,29,7.0,35.0,77,0.00,,,0.03,Wunderground v.1.15,2013-06-05 03:25:00,
2013-06-04 22:30:00,67.7,59.9,29.98,NE,35,8.0,8.0,76,0.00,,,0.03,Wunderground v.1.15,2013-06-05 03:30:00,
2013-06-04 22:35:00,67.5,59.7,29.99,NNE,22,7.0,35.0,76,0.00,,,0.03,Wunderground v.1.15,2013-06-05 03:35:00,
2013-06-04 22:45:00,67.0,59.2,30.00,NNE,24,6.0,35.0,76,0.00,,,0.03,Wunderground v.1.15,2013-06-05 03:45:00,
2013-06-04 22:50:00,66.8,59.4,30.01,NNE,24,5.0,35.0,77,0.00,,,0.03,Wunderground v.1.15,2013-06-05 03:50:00,
2013-06-04 22:55:00,66.7,59.3,30.01,NNE,26,4.0,35.0,77,0.00,,,0.03,Wunderground v.1.15,2013-06-05 03:55:00,
2013-06-04 23:00:00,66.4,59.0,30.00,NNE,20,4.0,35.0,77,0.00,,,0.03,Wunderground v.1.15,2013-06-05 04:00:00,
2013-06-04 23:05:00,66.1,59.0,29.99,NNE,19,4.0,35.0,78,0.00,,,0.03,Wunderground v.1.15,2013-06-05 04:05:00,
2013-06-04 23:15:00,65.5,58.8,29.99,NNE,32,5.0,6.0,79,0.00,,,0.03,Wunderground v.1.15,2013-06-05 04:15:00,
2013-06-04 23:20:00,65.4,58.7,29.99,NNE,24,6.0,35.0,79,0.00,,,0.03,Wunderground v.1.15,2013-06-05 04:20:00,
2013-06-04 23:25:00,65.4,58.4,29.99,NNE,17,6.0,35.0,78,0.00,,,0.03,Wunderground v.1.15,2013-06-05 04:25:00,
2013-06-04 23:30:00,65.5,58.5,29.99,NNE,29,7.0,7.0,78,0.00,,,0.03,Wunderground v.1.15,2013-06-05 04:30:00,
2013-06-04 23:35:00,65.5,58.5,29.99,NNE,19,7.0,35.0,78,0.00,,,0.03,Wunderground v.1.15,2013-06-05 04:35:00,
2013-06-04 23:40:00,65.4,58.4,29.99,NNE,32,7.0,7.0,78,0.00,,,0.03,Wunderground v.1.15,2013-06-05 04:40:00,
2013-06-04 23:45:00,65.2,58.2,29.98,NNE,28,6.0,35.0,78,0.00,,,0.03,Wunderground v.1.15,2013-06-05 04:45:00,
2013-06-04 23:50:00,65.1,58.4,29.99,NNE,22,5.0,35.0,79,0.00,,,0.03,Wunderground v.1.15,2013-06-05 04:50:00,